APL Indonesia — V2EC7 — position and weather

sailwx.info

Track history (hours):
 
Tides and Currents Weather Stations Pressure Air Temp Water Temp Dewpoint Dewpoint Depression Visibility Wind Speed Wind Dir Waves Ship Positions

APL Indonesia

Last reported at 2014-Aug-02 21:33 UTC. Time now 2014-Aug-27 15:10 UTC.
Position N 25°44' W 080°01'.
Warning: this ship's position is 24 days out of date.

Length 261 m; draft 9.1 m.

Type: Ship (hazmat cat B). MMSI: 305386000.

Date/timePositionNaut miles runAvg speedWind from/ knotsBaromVisibWave heightAir tempDewpointWater temp
2014-Aug-02 21:33N 25°44' W 080°01'7 7.0
2014-Aug-02 20:33N 25°46' W 080°09'1 0.7
2014-Aug-02 19:33N 25°46' W 080°09'0 0.0
2014-Aug-02 18:28N 25°46' W 080°09'0 0.0
2014-Aug-02 17:28N 25°46' W 080°09'0 0.0
2014-Aug-02 16:31N 25°46' W 080°09'0 0.0
2014-Aug-02 15:31N 25°46' W 080°09'0 0.0
2014-Aug-02 14:31N 25°46' W 080°09'0 0.0
2014-Aug-02 13:28N 25°46' W 080°09'0 0.0
2014-Aug-02 12:31N 25°46' W 080°09'0 0.0
2014-Aug-02 11:28N 25°46' W 080°09'0 0.0
2014-Aug-02 10:31N 25°46' W 080°09'2 2.0
2014-Aug-02 09:33N 25°46' W 080°07'8 7.5
2014-Aug-02 08:32N 25°50' W 080°00'1313.3
2014-Aug-02 07:33N 26°01' W 079°52'1515.1
2014-Aug-02 06:33N 26°16' W 079°52'1515.2
2014-Aug-02 05:33N 26°31' W 079°52'1715.9
2014-Aug-02 04:30N 26°48' W 079°52'1516.0
2014-Aug-02 03:33N 27°03' W 079°52'  
2014-Jul-29 17:29N 38°29' W 074°01'1712.2
2014-Jul-29 16:06N 38°45' W 073°57'912.4
2014-Jul-29 15:21N 38°54' W 073°54'1012.4
2014-Jul-29 14:32N 39°04' W 073°52'1312.0
2014-Jul-29 13:29N 39°17' W 073°52'1212.0
2014-Jul-29 12:28N 39°29' W 073°52'1112.2
2014-Jul-29 11:33N 39°40' W 073°52'1212.3
2014-Jul-29 10:33N 39°52' W 073°51'3511.7
2014-Jul-29 07:33N 40°27' W 073°50'1616.3
2014-Jul-29 06:33N 40°39' W 074°06'3 2.6
2014-Jul-29 05:33N 40°40' W 074°08'0 0.0
2014-Jul-29 04:31N 40°40' W 074°08'0 0.0
2014-Jul-29 03:31N 40°40' W 074°08'0 0.0
2014-Jul-29 02:31N 40°40' W 074°08'0 0.0
2014-Jul-29 01:31N 40°40' W 074°08'0 0.0
2014-Jul-29 00:31N 40°40' W 074°08'0 0.0
2014-Jul-28 23:31N 40°40' W 074°08'0 0.0
2014-Jul-28 22:28N 40°40' W 074°08'0 0.0
2014-Jul-28 21:31N 40°40' W 074°08'0 0.0
2014-Jul-28 20:31N 40°40' W 074°08'0 0.0
2014-Jul-28 19:31N 40°40' W 074°08'0 0.0
2014-Jul-28 18:31N 40°40' W 074°08'0 0.0
2014-Jul-28 17:31N 40°40' W 074°08'0 0.0
2014-Jul-28 16:31N 40°40' W 074°08'0 0.0
2014-Jul-28 15:31N 40°40' W 074°08'0 0.0
2014-Jul-28 14:31N 40°40' W 074°08'0 0.0
2014-Jul-28 13:31N 40°40' W 074°08'0 0.0
2014-Jul-28 12:31N 40°40' W 074°08'0 0.0
2014-Jul-28 11:28N 40°40' W 074°08'2 2.0
2014-Jul-28 10:34N 40°39' W 074°09'6 6.0
2014-Jul-28 09:33N 40°36' W 074°02'1413.1
2014-Jul-28 08:30N 40°27' W 073°48'8 7.6
2014-Jul-28 07:31N 40°19' W 073°46'2119.1
2014-Jul-28 06:25N 39°59' W 073°42'1619.1
2014-Jul-28 05:34N 39°42' W 073°40'1918.7
2014-Jul-28 04:33N 39°24' W 073°40'1817.6
2014-Jul-28 03:33N 39°06' W 073°42'1717.4
2014-Jul-28 02:34N 38°49' W 073°47'1817.5
2014-Jul-28 01:34N 38°32' W 073°51'1817.6
2014-Jul-28 00:33N 38°14' W 073°56'21616.7
2014-Jul-27 11:33N 34°45' W 075°05'4118.0
2014-Jul-27 09:16N 34°18' W 075°43'1519.3
2014-Jul-27 08:28N 34°08' W 075°57'1718.4
2014-Jul-27 07:33N 33°57' W 076°12'458 9.5
2014-Jul-25 07:34N 26°59' W 079°50'2120.7
2014-Jul-25 06:33N 26°38' W 079°50'2020.2
2014-Jul-25 05:33N 26°18' W 079°51'2020.1
2014-Jul-25 04:34N 25°58' W 079°51'2120.4
2014-Jul-25 03:33N 25°38' W 079°53'  
Track history (hours):
 
Tides and Currents Weather Stations Pressure Air Temp Water Temp Dewpoint Dewpoint Depression Visibility Wind Speed Wind Dir Waves Ship Positions

APL Indonesia

Last reported at 2014-Aug-02 21:33 UTC. Time now 2014-Aug-27 15:10 UTC.
Position N 25°44' W 080°01'.
Warning: this ship's position is 24 days out of date.

Length 261 m; draft 9.1 m.

Type: Ship (hazmat cat B). MMSI: 305386000.

Date/timePositionNaut miles runAvg speedWind from/ knotsBaromVisibWave heightAir tempDewpointWater temp
2014-Aug-02 21:33N 25°44' W 080°01'7 7.0
2014-Aug-02 20:33N 25°46' W 080°09'1 0.7
2014-Aug-02 19:33N 25°46' W 080°09'0 0.0
2014-Aug-02 18:28N 25°46' W 080°09'0 0.0
2014-Aug-02 17:28N 25°46' W 080°09'0 0.0
2014-Aug-02 16:31N 25°46' W 080°09'0 0.0
2014-Aug-02 15:31N 25°46' W 080°09'0 0.0
2014-Aug-02 14:31N 25°46' W 080°09'0 0.0
2014-Aug-02 13:28N 25°46' W 080°09'0 0.0
2014-Aug-02 12:31N 25°46' W 080°09'0 0.0
2014-Aug-02 11:28N 25°46' W 080°09'0 0.0
2014-Aug-02 10:31N 25°46' W 080°09'2 2.0
2014-Aug-02 09:33N 25°46' W 080°07'8 7.5
2014-Aug-02 08:32N 25°50' W 080°00'1313.3
2014-Aug-02 07:33N 26°01' W 079°52'1515.1
2014-Aug-02 06:33N 26°16' W 079°52'1515.2
2014-Aug-02 05:33N 26°31' W 079°52'1715.9
2014-Aug-02 04:30N 26°48' W 079°52'1516.0
2014-Aug-02 03:33N 27°03' W 079°52'  
2014-Jul-29 17:29N 38°29' W 074°01'1712.2
2014-Jul-29 16:06N 38°45' W 073°57'912.4
2014-Jul-29 15:21N 38°54' W 073°54'1012.4
2014-Jul-29 14:32N 39°04' W 073°52'1312.0
2014-Jul-29 13:29N 39°17' W 073°52'1212.0
2014-Jul-29 12:28N 39°29' W 073°52'1112.2
2014-Jul-29 11:33N 39°40' W 073°52'1212.3
2014-Jul-29 10:33N 39°52' W 073°51'3511.7
2014-Jul-29 07:33N 40°27' W 073°50'1616.3
2014-Jul-29 06:33N 40°39' W 074°06'3 2.6
2014-Jul-29 05:33N 40°40' W 074°08'0 0.0
2014-Jul-29 04:31N 40°40' W 074°08'0 0.0
2014-Jul-29 03:31N 40°40' W 074°08'0 0.0
2014-Jul-29 02:31N 40°40' W 074°08'0 0.0
2014-Jul-29 01:31N 40°40' W 074°08'0 0.0
2014-Jul-29 00:31N 40°40' W 074°08'0 0.0
2014-Jul-28 23:31N 40°40' W 074°08'0 0.0
2014-Jul-28 22:28N 40°40' W 074°08'0 0.0
2014-Jul-28 21:31N 40°40' W 074°08'0 0.0
2014-Jul-28 20:31N 40°40' W 074°08'0 0.0
2014-Jul-28 19:31N 40°40' W 074°08'0 0.0
2014-Jul-28 18:31N 40°40' W 074°08'0 0.0
2014-Jul-28 17:31N 40°40' W 074°08'0 0.0
2014-Jul-28 16:31N 40°40' W 074°08'0 0.0
2014-Jul-28 15:31N 40°40' W 074°08'0 0.0
2014-Jul-28 14:31N 40°40' W 074°08'0 0.0
2014-Jul-28 13:31N 40°40' W 074°08'0 0.0
2014-Jul-28 12:31N 40°40' W 074°08'0 0.0
2014-Jul-28 11:28N 40°40' W 074°08'2 2.0
2014-Jul-28 10:34N 40°39' W 074°09'6 6.0
2014-Jul-28 09:33N 40°36' W 074°02'1413.1
2014-Jul-28 08:30N 40°27' W 073°48'8 7.6
2014-Jul-28 07:31N 40°19' W 073°46'2119.1
2014-Jul-28 06:25N 39°59' W 073°42'1619.1
2014-Jul-28 05:34N 39°42' W 073°40'1918.7
2014-Jul-28 04:33N 39°24' W 073°40'1817.6
2014-Jul-28 03:33N 39°06' W 073°42'1717.4
2014-Jul-28 02:34N 38°49' W 073°47'1817.5
2014-Jul-28 01:34N 38°32' W 073°51'1817.6
2014-Jul-28 00:33N 38°14' W 073°56'21616.7
2014-Jul-27 11:33N 34°45' W 075°05'4118.0
2014-Jul-27 09:16N 34°18' W 075°43'1519.3
2014-Jul-27 08:28N 34°08' W 075°57'1718.4
2014-Jul-27 07:33N 33°57' W 076°12'458 9.5
2014-Jul-25 07:34N 26°59' W 079°50'2120.7
2014-Jul-25 06:33N 26°38' W 079°50'2020.2
2014-Jul-25 05:33N 26°18' W 079°51'2020.1
2014-Jul-25 04:34N 25°58' W 079°51'2120.4
2014-Jul-25 03:33N 25°38' W 079°53'  

Dump ship's entire track history